createdAt,value
2018-08-13T00:01:03.740Z,18.60
2018-08-13T00:03:32.544Z,18.60
2018-08-13T00:06:01.116Z,18.60
2018-08-13T00:08:29.712Z,18.50
2018-08-13T00:10:58.231Z,18.40
2018-08-13T00:13:26.744Z,18.40
2018-08-13T00:15:55.266Z,18.30
2018-08-13T00:18:23.881Z,18.30
2018-08-13T00:20:52.406Z,18.20
2018-08-13T00:23:20.935Z,18.20
2018-08-13T00:25:49.566Z,18.10
2018-08-13T00:28:18.119Z,18.10
2018-08-13T00:30:46.711Z,18.10
2018-08-13T00:33:15.326Z,18.10
2018-08-13T00:35:43.867Z,18.00
2018-08-13T00:38:12.356Z,18.00
2018-08-13T00:40:40.881Z,18.00
2018-08-13T00:43:09.404Z,18.00
2018-08-13T00:45:37.968Z,18.00
2018-08-13T00:48:06.507Z,18.00
2018-08-13T00:50:35.024Z,18.00
2018-08-13T00:53:03.615Z,17.90
2018-08-13T00:55:32.166Z,17.90
2018-08-13T00:58:00.638Z,17.90
2018-08-13T01:00:29.203Z,17.90
2018-08-13T01:02:57.695Z,17.80
2018-08-13T01:05:26.260Z,17.80
2018-08-13T01:07:54.829Z,17.80
2018-08-13T01:10:23.447Z,17.80
2018-08-13T01:12:51.957Z,17.80
2018-08-13T01:15:21.032Z,17.70
2018-08-13T01:17:50.499Z,17.80
2018-08-13T01:20:20.355Z,17.70
2018-08-13T01:22:48.918Z,17.70
2018-08-13T01:25:18.671Z,17.70
2018-08-13T01:27:47.228Z,17.80
2018-08-13T01:30:17.161Z,17.70
2018-08-13T01:32:45.716Z,17.80
2018-08-13T01:35:14.238Z,17.80
2018-08-13T01:37:42.753Z,17.80
2018-08-13T01:40:12.240Z,17.80
2018-08-13T01:42:40.791Z,17.80
2018-08-13T01:45:10.703Z,17.80
2018-08-13T01:47:39.731Z,17.80
2018-08-13T01:50:09.773Z,17.80
2018-08-13T01:52:38.299Z,17.80
2018-08-13T01:55:08.206Z,17.80
2018-08-13T01:57:37.462Z,17.80
2018-08-13T02:00:09.062Z,17.80
2018-08-13T02:02:37.588Z,17.80
2018-08-13T02:05:06.787Z,17.80
2018-08-13T02:07:35.422Z,17.80
2018-08-13T02:10:04.052Z,17.80
2018-08-13T02:12:32.599Z,17.80
2018-08-13T02:15:01.080Z,17.80
2018-08-13T02:17:29.744Z,17.80
2018-08-13T02:19:58.259Z,17.90
2018-08-13T02:22:26.771Z,17.80
2018-08-13T02:24:55.351Z,17.80
2018-08-13T02:27:23.879Z,17.90
2018-08-13T02:29:52.452Z,17.80
2018-08-13T02:32:20.966Z,17.80
2018-08-13T02:34:49.551Z,17.90
2018-08-13T02:37:18.067Z,17.90
2018-08-13T02:39:46.668Z,17.90
2018-08-13T02:42:15.134Z,17.80
2018-08-13T02:44:43.635Z,17.80
2018-08-13T02:47:12.216Z,17.80
2018-08-13T02:49:40.732Z,17.80
2018-08-13T02:52:09.261Z,17.80
2018-08-13T02:54:37.792Z,17.80
2018-08-13T02:57:06.812Z,17.80
2018-08-13T02:59:35.384Z,17.80
2018-08-13T03:02:04.215Z,17.80
2018-08-13T03:04:32.762Z,17.80
2018-08-13T03:07:01.313Z,17.80
2018-08-13T03:09:29.828Z,17.90
2018-08-13T03:11:58.356Z,17.90
2018-08-13T03:14:26.936Z,17.90
2018-08-13T03:16:55.523Z,17.90
2018-08-13T03:19:24.279Z,17.90
2018-08-13T03:21:52.791Z,17.90
2018-08-13T03:24:21.368Z,17.90
2018-08-13T03:26:49.973Z,17.80
2018-08-13T03:29:18.560Z,17.80
2018-08-13T03:31:47.213Z,17.80
2018-08-13T03:34:15.771Z,17.80
2018-08-13T03:36:44.307Z,17.90
2018-08-13T03:39:13.921Z,17.90
2018-08-13T03:41:43.248Z,17.80
2018-08-13T03:44:12.384Z,17.80
2018-08-13T03:46:40.890Z,17.80
2018-08-13T03:49:11.116Z,17.80
2018-08-13T03:51:39.911Z,17.80
2018-08-13T03:54:08.588Z,17.80
2018-08-13T03:56:37.218Z,17.80
2018-08-13T03:59:05.795Z,17.80
2018-08-13T04:01:34.512Z,17.80
2018-08-13T04:04:03.064Z,17.80
2018-08-13T04:06:31.559Z,17.80
2018-08-13T04:09:00.300Z,17.80
2018-08-13T04:11:28.819Z,17.80
2018-08-13T04:13:57.326Z,17.80
2018-08-13T04:16:25.942Z,17.80
2018-08-13T04:18:54.447Z,17.80
2018-08-13T04:21:23.003Z,17.70
2018-08-13T04:23:51.539Z,17.70
2018-08-13T04:26:20.094Z,17.70
2018-08-13T04:28:48.616Z,17.70
2018-08-13T04:31:17.196Z,17.60
2018-08-13T04:33:45.783Z,17.60
2018-08-13T04:36:14.297Z,17.60
2018-08-13T04:38:43.042Z,17.60
2018-08-13T04:41:11.514Z,17.60
2018-08-13T04:43:40.075Z,17.60
2018-08-13T04:46:08.856Z,17.70
2018-08-13T04:48:37.396Z,17.70
2018-08-13T04:51:05.967Z,17.70
2018-08-13T04:53:34.548Z,17.70
2018-08-13T04:56:03.112Z,17.70
2018-08-13T04:58:31.585Z,17.70
2018-08-13T05:01:00.097Z,17.70
2018-08-13T05:03:28.595Z,17.70
2018-08-13T05:05:57.158Z,17.80
2018-08-13T05:08:25.676Z,17.80
2018-08-13T05:10:54.179Z,17.80
2018-08-13T05:13:22.712Z,17.90
2018-08-13T05:15:51.246Z,17.90
2018-08-13T05:18:19.780Z,17.90
2018-08-13T05:20:48.319Z,18.00
2018-08-13T05:23:16.856Z,18.00
2018-08-13T05:25:45.661Z,18.00
2018-08-13T05:28:14.231Z,18.00
2018-08-13T05:30:42.708Z,18.10
2018-08-13T05:33:11.230Z,18.10
2018-08-13T05:35:39.685Z,18.10
2018-08-13T05:38:08.233Z,18.20
2018-08-13T05:40:36.703Z,18.20
2018-08-13T05:43:05.698Z,18.20
2018-08-13T05:45:34.185Z,18.20
2018-08-13T05:48:02.794Z,18.20
2018-08-13T05:50:31.314Z,18.20
2018-08-13T05:52:59.903Z,18.20
2018-08-13T05:55:28.545Z,18.20
2018-08-13T05:57:57.096Z,18.20
2018-08-13T06:00:25.611Z,18.30
2018-08-13T06:02:54.153Z,18.30
2018-08-13T06:05:22.663Z,18.30
2018-08-13T06:07:51.121Z,18.40
2018-08-13T06:10:19.664Z,18.50
2018-08-13T06:12:48.172Z,18.60
2018-08-13T06:15:16.733Z,18.70
2018-08-13T06:17:45.251Z,18.70
2018-08-13T06:20:13.904Z,18.80
2018-08-13T06:22:43.583Z,18.90
2018-08-13T06:25:13.024Z,18.90
2018-08-13T06:27:41.603Z,19.00
2018-08-13T06:30:13.462Z,19.00
2018-08-13T06:32:42.407Z,19.00
2018-08-13T06:35:11.858Z,19.00
2018-08-13T06:37:41.024Z,18.90
2018-08-13T06:40:09.991Z,18.90
2018-08-13T06:42:39.007Z,19.00
2018-08-13T06:45:09.311Z,19.00
2018-08-13T06:47:38.744Z,19.00
2018-08-13T06:50:09.235Z,19.00
2018-08-13T06:52:37.734Z,19.00
2018-08-13T06:55:06.396Z,19.00
2018-08-13T06:57:35.214Z,19.00
2018-08-13T07:00:05.500Z,19.00
2018-08-13T07:02:34.042Z,19.00
2018-08-13T07:05:02.604Z,19.00
2018-08-13T07:07:31.177Z,19.10
2018-08-13T07:09:59.746Z,19.10
2018-08-13T07:12:28.346Z,19.20
2018-08-13T07:14:56.887Z,19.20
2018-08-13T07:17:25.436Z,19.30
2018-08-13T07:19:53.999Z,19.30
2018-08-13T07:22:22.595Z,19.30
2018-08-13T07:24:51.061Z,19.30
2018-08-13T07:27:19.599Z,19.30
2018-08-13T07:29:48.048Z,19.30
2018-08-13T07:32:16.871Z,19.40
2018-08-13T07:34:45.399Z,19.50
2018-08-13T07:37:13.907Z,19.50
2018-08-13T07:39:42.429Z,19.60
2018-08-13T07:42:11.000Z,19.70
2018-08-13T07:44:39.527Z,19.80
2018-08-13T07:47:08.180Z,19.90
2018-08-13T07:49:36.686Z,20.00
2018-08-13T07:52:05.244Z,20.00
2018-08-13T07:54:33.731Z,20.00
2018-08-13T07:57:02.269Z,20.00
2018-08-13T07:59:38.395Z,20.00
2018-08-13T08:02:06.971Z,19.90
2018-08-13T08:04:35.449Z,19.80
2018-08-13T08:07:03.999Z,19.80
2018-08-13T08:09:32.509Z,19.70
2018-08-13T08:12:01.050Z,19.80
2018-08-13T08:22:11.025Z,20.20
2018-08-13T08:24:39.860Z,20.40
2018-08-13T08:27:08.751Z,20.60
2018-08-13T08:29:37.277Z,20.80
2018-08-13T08:32:05.839Z,20.90
2018-08-13T08:34:34.453Z,21.00
2018-08-13T08:37:03.296Z,21.20
2018-08-13T08:39:31.850Z,21.20
2018-08-13T08:42:00.343Z,21.30
2018-08-13T08:44:29.111Z,21.40
2018-08-13T08:46:57.647Z,21.50
2018-08-13T08:49:26.226Z,21.60
2018-08-13T08:51:55.121Z,21.70
2018-08-13T08:54:23.655Z,21.90
2018-08-13T08:56:52.187Z,22.00
2018-08-13T08:59:20.747Z,22.20
2018-08-13T09:01:49.307Z,22.30
2018-08-13T09:04:17.838Z,22.40
2018-08-13T09:06:46.381Z,22.60
2018-08-13T09:09:14.938Z,22.70
2018-08-13T09:11:43.487Z,22.90
2018-08-13T09:14:12.108Z,22.90
2018-08-13T09:16:42.168Z,22.90
2018-08-13T09:20:24.215Z,23.00
2018-08-13T09:23:03.938Z,23.00
2018-08-13T09:25:43.652Z,22.90
2018-08-13T09:28:23.339Z,22.90
2018-08-13T09:31:03.144Z,22.90
2018-08-13T09:33:42.773Z,23.00
2018-08-13T09:36:11.479Z,23.10
2018-08-13T09:38:39.991Z,23.10
2018-08-13T09:41:08.511Z,23.00
2018-08-13T09:43:37.073Z,23.00
2018-08-13T09:46:05.779Z,23.10
2018-08-13T09:48:34.402Z,23.20
2018-08-13T09:53:36.765Z,23.40
2018-08-13T09:56:05.442Z,23.40
2018-08-13T09:58:33.953Z,23.40
2018-08-13T10:01:09.043Z,23.50
2018-08-13T10:03:37.728Z,23.50
2018-08-13T10:06:06.269Z,23.40
2018-08-13T10:08:34.751Z,23.40
2018-08-13T10:11:03.326Z,23.30
2018-08-13T10:13:31.887Z,23.20
2018-08-13T10:16:00.453Z,23.10
2018-08-13T10:18:29.075Z,23.10
2018-08-13T10:20:57.603Z,23.10
2018-08-13T10:23:26.271Z,22.90
2018-08-13T10:25:54.791Z,22.80
2018-08-13T10:28:23.776Z,22.70
2018-08-13T10:30:52.635Z,22.50
2018-08-13T10:33:21.416Z,22.40
2018-08-13T10:35:50.121Z,22.30
2018-08-13T10:38:19.910Z,22.10
2018-08-13T10:40:51.168Z,21.70
2018-08-13T10:43:19.895Z,21.50
2018-08-13T10:45:48.436Z,21.50
2018-08-13T10:48:17.600Z,21.60
2018-08-13T10:50:47.205Z,21.80
2018-08-13T10:53:16.916Z,22.00
2018-08-13T10:55:46.845Z,22.20
2018-08-13T10:58:19.962Z,22.40
2018-08-13T11:00:50.081Z,22.70
2018-08-13T11:03:20.694Z,23.00
2018-08-13T11:05:50.697Z,23.40
2018-08-13T11:08:22.911Z,23.90
2018-08-13T11:10:53.726Z,24.30
2018-08-13T11:13:24.365Z,24.60
2018-08-13T11:15:55.493Z,24.80
2018-08-13T11:18:24.792Z,25.00
2018-08-13T11:20:54.420Z,25.00
2018-08-13T11:23:23.229Z,25.00
2018-08-13T11:25:53.050Z,25.00
2018-08-13T11:28:22.573Z,25.20
2018-08-13T11:30:52.075Z,25.30
2018-08-13T11:33:22.322Z,25.30
2018-08-13T11:35:52.377Z,25.30
2018-08-13T11:38:22.906Z,25.10
2018-08-13T11:40:53.656Z,25.00
2018-08-13T11:43:25.217Z,25.00
2018-08-13T11:45:53.726Z,25.10
2018-08-13T11:48:22.248Z,25.10
2018-08-13T11:50:50.794Z,25.20
2018-08-13T11:53:19.392Z,25.20
2018-08-13T11:55:47.913Z,25.30
2018-08-13T11:58:16.458Z,25.30
2018-08-13T12:00:44.992Z,25.30
2018-08-13T12:03:13.537Z,25.50
2018-08-13T12:05:42.783Z,25.60
2018-08-13T12:08:12.112Z,25.90
2018-08-13T12:10:41.689Z,26.10
2018-08-13T12:13:10.904Z,26.10
2018-08-13T12:15:39.759Z,26.20
2018-08-13T12:18:09.688Z,26.30
2018-08-13T12:20:38.488Z,26.30
2018-08-13T12:23:09.453Z,26.00
2018-08-13T12:25:39.293Z,25.80
2018-08-13T12:28:09.274Z,25.70
2018-08-13T12:30:38.231Z,25.80
2018-08-13T12:33:06.859Z,26.10
2018-08-13T12:35:43.724Z,26.60
2018-08-13T12:38:12.739Z,27.10
2018-08-13T12:40:41.271Z,27.30
2018-08-13T12:43:09.873Z,27.20
2018-08-13T12:45:38.422Z,27.10
2018-08-13T12:48:07.247Z,26.80
2018-08-13T12:50:35.821Z,26.70
2018-08-13T12:53:04.388Z,26.60
2018-08-13T12:55:32.936Z,26.60
2018-08-13T12:58:01.518Z,26.50
2018-08-13T13:00:30.048Z,26.50
2018-08-13T13:02:58.646Z,26.50
2018-08-13T13:05:27.163Z,26.40
2018-08-13T13:45:06.118Z,26.60
2018-08-13T13:47:39.562Z,27.00
2018-08-13T13:50:11.954Z,27.00
2018-08-13T13:52:42.092Z,27.00
2018-08-13T13:55:10.902Z,26.70
2018-08-13T13:57:39.452Z,26.30
2018-08-13T14:00:15.659Z,26.00
2018-08-13T14:02:48.525Z,25.70
2018-08-13T14:05:17.143Z,25.40
2018-08-13T14:07:45.741Z,25.20
2018-08-13T14:10:17.175Z,25.20
2018-08-13T14:12:46.134Z,25.10
2018-08-13T14:15:16.263Z,25.00
2018-08-13T14:17:44.754Z,24.60
2018-08-13T14:20:13.284Z,23.90
2018-08-13T14:22:41.864Z,23.20
2018-08-13T14:25:12.384Z,22.70
2018-08-13T14:27:41.071Z,22.20
2018-08-13T14:30:13.349Z,21.80
2018-08-13T14:32:41.885Z,21.60
2018-08-13T14:35:10.459Z,21.40
2018-08-13T14:37:39.354Z,21.20
2018-08-13T14:40:09.825Z,21.10
2018-08-13T14:42:38.611Z,21.00
2018-08-13T14:45:09.575Z,20.90
2018-08-13T14:47:38.158Z,20.90
2018-08-13T14:50:08.460Z,20.70
2018-08-13T14:52:37.042Z,20.30
2018-08-13T14:55:05.960Z,19.70
2018-08-13T14:57:34.523Z,19.40
2018-08-13T15:00:03.404Z,19.10
2018-08-13T15:02:31.922Z,19.00
2018-08-13T15:05:00.462Z,18.90
2018-08-13T15:07:28.919Z,18.90
2018-08-13T15:09:57.469Z,19.00
2018-08-13T15:12:26.000Z,19.10
2018-08-13T15:14:54.535Z,19.30
2018-08-13T15:17:29.671Z,19.50
2018-08-13T15:19:58.142Z,19.60
2018-08-13T15:22:33.408Z,19.70
2018-08-13T15:25:01.955Z,19.70
2018-08-13T15:27:30.568Z,19.70
2018-08-13T15:29:59.051Z,19.60
2018-08-13T15:32:27.526Z,19.50
2018-08-13T15:34:56.085Z,19.60
2018-08-13T15:37:24.650Z,19.70
2018-08-13T15:39:53.276Z,19.80
2018-08-13T15:42:21.963Z,19.80
2018-08-13T15:44:50.505Z,19.80
2018-08-13T15:47:19.619Z,19.80
2018-08-13T15:49:48.156Z,19.80
2018-08-13T15:52:16.768Z,19.90
2018-08-13T15:54:45.337Z,19.90
2018-08-13T15:57:13.853Z,19.90
2018-08-13T15:59:43.312Z,19.90
2018-08-13T16:02:12.990Z,19.90
2018-08-13T16:04:41.523Z,19.90
2018-08-13T16:07:12.010Z,20.00
2018-08-13T16:09:40.765Z,20.10
2018-08-13T16:12:09.787Z,20.10
2018-08-13T16:14:39.135Z,20.20
2018-08-13T16:17:08.981Z,20.20
2018-08-13T16:19:37.527Z,20.30
2018-08-13T16:22:06.123Z,20.40
2018-08-13T16:24:35.118Z,20.40
2018-08-13T16:27:03.723Z,20.40
2018-08-13T16:29:32.240Z,20.40
2018-08-13T16:32:00.995Z,20.40
2018-08-13T16:34:29.481Z,20.50
2018-08-13T16:36:57.982Z,20.60
2018-08-13T16:39:26.531Z,20.50
2018-08-13T16:41:55.035Z,20.50
2018-08-13T16:44:23.570Z,20.40
2018-08-13T16:46:52.096Z,20.40
2018-08-13T16:49:20.563Z,20.20
2018-08-13T16:51:49.098Z,20.10
2018-08-13T16:54:17.561Z,20.10
2018-08-13T16:56:46.113Z,19.90
2018-08-13T16:59:14.665Z,19.70
2018-08-13T17:01:43.195Z,19.60
2018-08-13T17:04:11.707Z,19.50
2018-08-13T17:06:40.279Z,19.50
2018-08-13T17:09:09.974Z,19.50
2018-08-13T17:11:38.467Z,19.50
2018-08-13T17:14:11.345Z,19.50
2018-08-13T17:16:41.601Z,19.50
2018-08-13T17:19:10.208Z,19.40
2018-08-13T17:21:38.884Z,19.30
2018-08-13T17:24:09.644Z,19.30
2018-08-13T17:26:38.253Z,19.20
2018-08-13T17:29:07.147Z,19.20
2018-08-13T17:31:35.986Z,19.10
2018-08-13T17:34:04.800Z,19.10
2018-08-13T17:36:33.316Z,19.00
2018-08-13T17:39:01.937Z,19.00
2018-08-13T17:41:30.522Z,19.00
2018-08-13T17:43:59.116Z,19.00
2018-08-13T17:46:27.721Z,19.00
2018-08-13T17:48:56.895Z,19.00
2018-08-13T17:51:25.504Z,19.00
2018-08-13T17:53:54.091Z,19.00
2018-08-13T17:56:22.745Z,19.10
2018-08-13T17:58:51.224Z,19.10
2018-08-13T18:01:19.829Z,19.10
2018-08-13T18:03:48.469Z,19.10
2018-08-13T18:06:17.193Z,19.10
2018-08-13T18:08:45.818Z,19.00
2018-08-13T18:11:15.720Z,19.00
2018-08-13T18:13:44.210Z,19.00
2018-08-13T18:16:12.774Z,19.00
2018-08-13T18:18:41.329Z,19.10
2018-08-13T18:21:09.895Z,19.00
2018-08-13T18:23:38.496Z,19.00
2018-08-13T18:26:07.040Z,18.90
2018-08-13T18:28:35.556Z,18.80
2018-08-13T18:31:04.125Z,18.80
2018-08-13T18:33:32.716Z,18.70
2018-08-13T18:36:01.237Z,18.70
2018-08-13T18:38:29.780Z,18.60
2018-08-13T18:40:58.286Z,18.50
2018-08-13T18:43:26.840Z,18.50
2018-08-13T18:45:55.339Z,18.40
2018-08-13T18:48:23.848Z,18.40
2018-08-13T18:50:52.406Z,18.40
2018-08-13T18:53:20.953Z,18.40
2018-08-13T18:55:49.500Z,18.40
2018-08-13T18:58:18.089Z,18.40
2018-08-13T19:00:50.849Z,18.40
2018-08-13T19:03:19.442Z,18.40
2018-08-13T19:05:48.000Z,18.40
2018-08-13T19:08:16.636Z,18.30
2018-08-13T19:10:45.240Z,18.30
2018-08-13T19:13:13.884Z,18.20
2018-08-13T19:15:42.430Z,18.20
2018-08-13T19:18:10.982Z,18.20
2018-08-13T19:20:39.614Z,18.20
2018-08-13T19:23:08.144Z,18.20
2018-08-13T19:25:36.704Z,18.00
2018-08-13T19:28:05.659Z,18.00
2018-08-13T19:30:34.230Z,17.90
2018-08-13T19:33:02.813Z,17.90
2018-08-13T19:35:31.348Z,17.80
2018-08-13T19:37:59.933Z,17.80
2018-08-13T19:40:28.540Z,17.80
2018-08-13T19:42:57.057Z,17.80
2018-08-13T19:45:25.661Z,17.80
2018-08-13T19:47:54.527Z,17.80
2018-08-13T19:50:23.060Z,17.80
2018-08-13T19:52:51.857Z,17.80
2018-08-13T19:55:20.943Z,17.80
2018-08-13T19:57:49.505Z,17.80
2018-08-13T20:00:20.508Z,17.80
2018-08-13T20:02:49.599Z,17.60
2018-08-13T20:05:19.286Z,17.60
2018-08-13T20:07:47.872Z,17.50
2018-08-13T20:10:16.860Z,17.40
2018-08-13T20:12:46.124Z,17.30
2018-08-13T20:15:14.656Z,17.20
2018-08-13T20:17:43.583Z,17.20
2018-08-13T20:20:16.520Z,17.20
2018-08-13T20:22:45.966Z,17.10
2018-08-13T20:25:15.942Z,17.10
2018-08-13T20:27:45.189Z,17.10
2018-08-13T20:30:15.978Z,17.00
2018-08-13T20:32:45.656Z,17.10
2018-08-13T20:35:14.281Z,17.00
2018-08-13T20:37:42.845Z,17.00
2018-08-13T20:40:13.531Z,17.10
2018-08-13T20:42:42.478Z,17.00
2018-08-13T20:45:13.461Z,17.00
2018-08-13T20:47:42.368Z,17.00
2018-08-13T20:50:16.151Z,17.10
2018-08-13T20:52:45.218Z,17.10
2018-08-13T20:55:16.404Z,17.20
2018-08-13T20:57:45.768Z,17.20
2018-08-13T21:00:15.619Z,17.20
2018-08-13T21:02:45.496Z,17.20
2018-08-13T21:05:14.177Z,17.10
2018-08-13T21:07:43.077Z,17.20
2018-08-13T21:10:13.508Z,17.10
2018-08-13T21:12:42.232Z,17.00
2018-08-13T21:15:12.968Z,17.00
2018-08-13T21:17:42.475Z,17.00
2018-08-13T21:20:15.330Z,16.90
2018-08-13T21:22:44.212Z,17.00
2018-08-13T21:25:13.310Z,16.90
2018-08-13T21:27:42.676Z,16.90
2018-08-13T21:30:11.518Z,16.90
2018-08-13T21:32:41.492Z,16.90
2018-08-13T21:35:10.499Z,17.00
2018-08-13T21:37:39.080Z,17.00
2018-08-13T21:40:09.221Z,16.90
2018-08-13T21:42:38.054Z,17.00
2018-08-13T21:45:08.318Z,16.90
2018-08-13T21:47:37.621Z,17.00
2018-08-13T21:50:12.273Z,16.90
2018-08-13T21:52:40.960Z,16.90
2018-08-13T21:55:10.178Z,16.90
2018-08-13T21:57:38.788Z,17.00
2018-08-13T22:00:18.371Z,16.90
2018-08-13T22:02:47.941Z,17.00
2018-08-13T22:05:16.491Z,17.00
2018-08-13T22:07:45.392Z,17.00
2018-08-13T22:10:13.901Z,17.00
2018-08-13T22:12:42.508Z,17.00
2018-08-13T22:15:25.726Z,17.10
2018-08-13T22:17:55.557Z,17.10
2018-08-13T22:20:24.589Z,17.10
2018-08-13T22:22:53.157Z,17.10
2018-08-13T22:25:23.561Z,17.10
2018-08-13T22:27:52.175Z,17.10
2018-08-13T22:30:20.822Z,17.10
2018-08-13T22:32:49.376Z,17.10
2018-08-13T22:35:18.819Z,17.10
2018-08-13T22:37:47.364Z,17.10
2018-08-13T22:40:19.321Z,17.10
2018-08-13T22:42:47.905Z,17.10
2018-08-13T22:45:19.547Z,17.10
2018-08-13T22:47:48.167Z,17.00
2018-08-13T22:50:16.745Z,17.00
2018-08-13T22:52:45.333Z,16.90
2018-08-13T22:55:15.416Z,16.90
2018-08-13T22:57:44.095Z,16.80
2018-08-13T23:00:15.594Z,16.80
2018-08-13T23:02:45.027Z,16.80
2018-08-13T23:05:17.501Z,16.80
2018-08-13T23:07:46.033Z,16.80
2018-08-13T23:10:17.847Z,16.70
2018-08-13T23:12:47.616Z,16.70
2018-08-13T23:15:17.097Z,16.70
2018-08-13T23:17:46.246Z,16.70
2018-08-13T23:20:22.967Z,16.80
2018-08-13T23:23:05.676Z,16.80
2018-08-13T23:25:35.512Z,16.80
2018-08-13T23:28:06.061Z,16.80
2018-08-13T23:30:34.595Z,16.80
2018-08-13T23:33:03.228Z,16.80
2018-08-13T23:35:32.369Z,16.80
2018-08-13T23:38:00.955Z,16.80
2018-08-13T23:40:30.012Z,16.80
2018-08-13T23:42:58.615Z,16.80
2018-08-13T23:45:28.807Z,16.80
2018-08-13T23:47:57.570Z,16.80
2018-08-13T23:50:26.980Z,16.80
2018-08-13T23:53:00.249Z,16.80
2018-08-13T23:55:35.673Z,16.80
2018-08-13T23:58:10.668Z,16.80
